createdAt,value
2022-10-07T00:01:35.207Z,5.03
2022-10-07T00:04:03.338Z,4.38
2022-10-07T00:06:31.437Z,4.30
2022-10-07T00:09:01.737Z,4.07
2022-10-07T00:11:30.809Z,4.53
2022-10-07T00:14:01.149Z,3.60
2022-10-07T00:16:31.354Z,4.38
2022-10-07T00:19:02.744Z,3.95
2022-10-07T00:21:34.322Z,4.38
2022-10-07T00:24:03.023Z,4.60
2022-10-07T00:26:33.554Z,4.70
2022-10-07T00:29:02.260Z,4.95
2022-10-07T00:31:31.684Z,3.70
2022-10-07T00:34:01.641Z,4.03
2022-10-07T00:36:32.484Z,4.70
2022-10-07T00:39:02.301Z,4.40
2022-10-07T00:41:32.849Z,4.57
2022-10-07T00:44:01.932Z,4.45
2022-10-07T00:46:34.940Z,5.05
2022-10-07T00:49:09.323Z,4.30
2022-10-07T00:51:38.418Z,5.10
2022-10-07T00:54:11.985Z,5.40
2022-10-07T00:56:41.766Z,6.38
2022-10-07T00:59:11.269Z,4.93
2022-10-07T01:01:42.256Z,5.03
2022-10-07T01:04:13.989Z,4.72
2022-10-07T01:06:43.071Z,4.88
2022-10-07T01:09:12.822Z,4.65
2022-10-07T01:11:51.931Z,4.30
2022-10-07T01:14:29.421Z,4.60
2022-10-07T01:17:03.005Z,4.43
2022-10-07T01:19:55.496Z,6.07
2022-10-07T01:22:34.296Z,4.47
2022-10-07T01:25:21.587Z,4.53
2022-10-07T01:27:54.996Z,4.38
2022-10-07T01:30:23.451Z,5.03
2022-10-07T01:32:56.877Z,5.32
2022-10-07T01:35:29.049Z,5.63
2022-10-07T01:38:01.559Z,5.32
2022-10-07T01:40:44.359Z,4.75
2022-10-07T01:43:16.921Z,5.45
2022-10-07T01:45:45.128Z,4.82
2022-10-07T01:48:13.471Z,4.68
2022-10-07T01:50:42.186Z,4.15
2022-10-07T01:53:28.174Z,5.15
2022-10-07T01:56:12.580Z,5.70
2022-10-07T01:58:56.536Z,5.15
2022-10-07T02:01:34.741Z,5.65
2022-10-07T02:04:31.184Z,6.22
2022-10-07T02:07:08.203Z,4.97
2022-10-07T02:09:41.195Z,5.45
2022-10-07T02:12:17.129Z,5.57
2022-10-07T02:14:54.720Z,5.50
2022-10-07T02:17:24.797Z,5.05
2022-10-07T02:19:57.871Z,5.00
2022-10-07T02:22:29.673Z,5.03
2022-10-07T02:24:59.998Z,5.38
2022-10-07T02:27:33.123Z,5.65
2022-10-07T02:30:06.338Z,4.68
2022-10-07T02:32:36.162Z,4.70
2022-10-07T02:35:10.146Z,4.47
2022-10-07T02:37:41.040Z,3.72
2022-10-07T02:40:12.394Z,4.15
2022-10-07T02:42:47.998Z,3.90
2022-10-07T02:45:26.684Z,4.72
2022-10-07T02:48:02.144Z,5.47
2022-10-07T02:50:38.605Z,3.95
2022-10-07T02:53:07.646Z,3.50
2022-10-07T02:55:36.870Z,4.00
2022-10-07T02:58:10.207Z,3.53
2022-10-07T03:00:44.525Z,3.85
2022-10-07T03:03:12.900Z,3.90
2022-10-07T03:05:41.468Z,3.55
2022-10-07T03:08:12.034Z,4.03
2022-10-07T03:10:40.952Z,3.65
2022-10-07T03:13:09.215Z,3.97
2022-10-07T03:15:42.406Z,4.63
2022-10-07T03:18:26.798Z,4.63
2022-10-07T03:20:55.572Z,5.30
2022-10-07T03:23:24.722Z,4.53
2022-10-07T03:25:54.142Z,4.35
2022-10-07T03:28:23.486Z,4.47
2022-10-07T03:30:51.886Z,3.92
2022-10-07T03:33:26.520Z,4.38
2022-10-07T03:35:54.732Z,3.30
2022-10-07T03:38:23.387Z,4.00
2022-10-07T03:40:53.047Z,4.38
2022-10-07T03:43:21.724Z,4.32
2022-10-07T03:45:52.432Z,4.32
2022-10-07T03:48:22.193Z,4.70
2022-10-07T03:50:51.212Z,4.47
2022-10-07T03:53:20.427Z,3.83
2022-10-07T03:55:51.732Z,3.60
2022-10-07T03:58:19.941Z,3.90
2022-10-07T04:00:48.807Z,3.67
2022-10-07T04:03:18.859Z,3.92
2022-10-07T04:06:00.520Z,4.35
2022-10-07T04:08:29.607Z,3.47
2022-10-07T04:10:58.640Z,4.32
2022-10-07T04:13:27.122Z,3.83
2022-10-07T04:15:55.787Z,4.80
2022-10-07T04:18:24.685Z,3.58
2022-10-07T04:20:53.063Z,3.55
2022-10-07T04:23:23.185Z,3.60
2022-10-07T04:25:51.350Z,3.78
2022-10-07T04:28:21.659Z,3.05
2022-10-07T04:30:51.670Z,3.63
2022-10-07T04:33:21.358Z,3.58
2022-10-07T04:35:50.396Z,3.40
2022-10-07T04:38:19.982Z,3.72
2022-10-07T04:40:51.599Z,4.47
2022-10-07T04:43:21.027Z,4.25
2022-10-07T04:45:50.570Z,4.45
2022-10-07T04:48:20.128Z,5.47
2022-10-07T04:50:48.947Z,5.15
2022-10-07T04:53:18.217Z,4.22
2022-10-07T04:55:47.832Z,4.65
2022-10-07T04:58:17.986Z,4.45
2022-10-07T05:00:48.207Z,4.75
2022-10-07T05:03:18.793Z,5.20
2022-10-07T05:05:48.172Z,4.53
2022-10-07T05:08:18.686Z,5.43
2022-10-07T05:10:46.862Z,4.53
2022-10-07T05:13:18.212Z,4.68
2022-10-07T05:15:50.763Z,3.88
2022-10-07T05:18:20.145Z,3.90
2022-10-07T05:20:48.993Z,4.90
2022-10-07T05:23:19.161Z,4.53
2022-10-07T05:25:48.059Z,4.03
2022-10-07T05:28:19.018Z,4.63
2022-10-07T05:30:47.129Z,4.95
2022-10-07T05:33:15.408Z,4.40
2022-10-07T05:35:47.654Z,4.82
2022-10-07T05:38:15.757Z,4.95
2022-10-07T05:40:44.136Z,5.65
2022-10-07T05:43:12.471Z,4.95
2022-10-07T05:45:43.407Z,5.75
2022-10-07T05:48:12.753Z,5.80
2022-10-07T05:50:41.200Z,4.40
2022-10-07T05:53:09.521Z,5.13
2022-10-07T05:55:42.097Z,6.30
2022-10-07T05:58:10.601Z,5.70
2022-10-07T06:00:42.669Z,6.85
2022-10-07T06:03:12.550Z,5.85
2022-10-07T06:05:41.084Z,7.82
2022-10-07T06:08:09.263Z,5.95
2022-10-07T06:10:54.869Z,6.28
2022-10-07T06:13:24.555Z,6.07
2022-10-07T06:15:52.946Z,5.70
2022-10-07T06:18:22.694Z,7.28
2022-10-07T06:20:57.692Z,7.57
2022-10-07T06:23:26.415Z,7.97
2022-10-07T06:25:57.052Z,7.40
2022-10-07T06:28:25.427Z,8.77
2022-10-07T06:30:54.336Z,6.60
2022-10-07T06:33:23.948Z,7.00
2022-10-07T06:35:56.724Z,7.20
2022-10-07T06:38:27.204Z,8.13
2022-10-07T06:40:59.250Z,7.32
2022-10-07T06:43:28.152Z,7.72
2022-10-07T06:46:00.331Z,8.68
2022-10-07T06:48:32.313Z,7.85
2022-10-07T06:51:03.406Z,7.25
2022-10-07T06:53:32.966Z,7.93
2022-10-07T06:56:03.553Z,7.28
2022-10-07T06:58:31.873Z,9.23
2022-10-07T07:01:00.878Z,9.10
2022-10-07T07:03:31.287Z,8.18
2022-10-07T07:06:00.179Z,7.35
2022-10-07T07:08:31.857Z,6.53
2022-10-07T07:11:05.806Z,6.65
2022-10-07T07:13:35.442Z,8.63
2022-10-07T07:16:03.743Z,7.60
2022-10-07T07:18:33.208Z,7.75
2022-10-07T07:21:03.785Z,7.40
2022-10-07T07:23:32.583Z,6.72
2022-10-07T07:26:02.064Z,6.05
2022-10-07T07:28:31.549Z,5.97
2022-10-07T07:30:59.993Z,5.32
2022-10-07T07:33:28.827Z,6.68
2022-10-07T07:35:59.118Z,6.38
2022-10-07T07:38:27.690Z,7.80
2022-10-07T07:40:55.877Z,7.60
2022-10-07T07:43:24.062Z,6.47
2022-10-07T07:45:52.565Z,6.85
2022-10-07T07:48:20.624Z,5.25
2022-10-07T07:50:48.877Z,7.22
2022-10-07T07:53:18.902Z,6.00
2022-10-07T07:55:53.894Z,6.93
2022-10-07T07:58:29.146Z,7.00
2022-10-07T08:01:02.016Z,6.38
2022-10-07T08:03:30.254Z,5.80
2022-10-07T08:06:02.099Z,6.85
2022-10-07T08:08:32.252Z,6.53
2022-10-07T08:11:08.310Z,5.70
2022-10-07T08:13:39.361Z,7.05
2022-10-07T08:16:08.684Z,6.40
2022-10-07T08:18:37.646Z,7.75
2022-10-07T08:21:07.985Z,6.97
2022-10-07T08:23:38.351Z,6.95
2022-10-07T08:26:07.791Z,6.28
2022-10-07T08:28:36.944Z,7.63
2022-10-07T08:31:07.032Z,6.47
2022-10-07T08:33:37.281Z,7.10
2022-10-07T08:36:07.530Z,7.07
2022-10-07T08:38:39.083Z,7.35
2022-10-07T08:41:23.817Z,6.28
2022-10-07T08:43:53.045Z,6.10
2022-10-07T08:46:28.043Z,6.00
2022-10-07T08:49:00.161Z,5.70
2022-10-07T08:51:39.037Z,5.82
2022-10-07T08:54:15.257Z,6.07
2022-10-07T08:56:44.038Z,5.10
2022-10-07T08:59:21.797Z,6.68
2022-10-07T09:02:04.712Z,5.53
2022-10-07T09:04:47.244Z,5.57
2022-10-07T09:07:19.005Z,5.47
2022-10-07T09:09:54.969Z,5.50
2022-10-07T09:12:30.581Z,5.80
2022-10-07T09:15:02.920Z,5.97
2022-10-07T09:17:36.695Z,5.18
2022-10-07T09:20:16.596Z,5.88
2022-10-07T09:22:53.707Z,6.35
2022-10-07T09:25:25.057Z,6.22
2022-10-07T09:27:54.679Z,6.22
2022-10-07T09:30:24.456Z,5.53
2022-10-07T09:32:55.446Z,5.20
2022-10-07T09:35:26.091Z,5.32
2022-10-07T09:38:00.292Z,5.80
2022-10-07T09:41:00.705Z,5.55
2022-10-07T09:43:30.410Z,5.10
2022-10-07T09:46:00.823Z,5.10
2022-10-07T09:48:33.722Z,5.43
2022-10-07T09:51:15.924Z,5.22
2022-10-07T09:53:59.252Z,5.80
2022-10-07T09:56:41.786Z,5.00
2022-10-07T09:59:24.768Z,5.53
2022-10-07T10:01:58.974Z,4.78
2022-10-07T10:04:32.594Z,4.35
2022-10-07T10:07:06.407Z,7.22
2022-10-07T10:09:36.048Z,5.10
2022-10-07T10:12:17.433Z,6.35
2022-10-07T10:14:49.669Z,5.03
2022-10-07T10:17:31.861Z,6.43
2022-10-07T10:20:31.982Z,5.65
2022-10-07T10:23:02.298Z,6.30
2022-10-07T10:26:01.490Z,5.25
2022-10-07T10:28:45.216Z,5.55
2022-10-07T10:31:22.665Z,7.10
2022-10-07T10:34:01.524Z,5.75
2022-10-07T10:36:36.290Z,5.28
2022-10-07T10:39:11.800Z,5.88
2022-10-07T10:41:50.820Z,5.20
2022-10-07T10:44:33.332Z,5.10
2022-10-07T10:47:12.497Z,4.75
2022-10-07T10:49:50.256Z,5.05
2022-10-07T10:52:32.668Z,3.92
2022-10-07T10:55:36.912Z,5.20
2022-10-07T10:58:21.929Z,5.07
2022-10-07T11:01:01.260Z,4.22
2022-10-07T11:03:45.412Z,4.07
2022-10-07T11:06:18.181Z,3.92
2022-10-07T11:08:47.797Z,3.72
2022-10-07T11:11:19.449Z,3.08
2022-10-07T11:13:52.850Z,3.72
2022-10-07T11:16:26.636Z,3.10
2022-10-07T11:18:59.237Z,3.08
2022-10-07T11:21:33.002Z,3.53
2022-10-07T11:24:05.550Z,3.25
2022-10-07T11:26:39.561Z,4.00
2022-10-07T11:29:20.407Z,4.60
2022-10-07T11:31:57.821Z,3.05
2022-10-07T11:34:36.453Z,3.92
2022-10-07T11:37:11.240Z,3.25
2022-10-07T11:39:40.677Z,3.92
2022-10-07T11:42:17.276Z,3.13
2022-10-07T11:44:55.019Z,3.05
2022-10-07T11:47:31.954Z,3.63
2022-10-07T11:50:07.883Z,3.33
2022-10-07T11:52:42.593Z,3.10
2022-10-07T11:55:19.078Z,3.20
2022-10-07T11:57:54.696Z,3.58
2022-10-07T12:00:28.828Z,3.83
2022-10-07T12:02:59.029Z,3.08
2022-10-07T12:05:57.709Z,3.08
2022-10-07T12:08:32.735Z,3.40
2022-10-07T12:11:43.834Z,2.63
2022-10-07T12:14:41.353Z,2.80
2022-10-07T12:17:21.199Z,3.47
2022-10-07T12:20:31.738Z,3.78
2022-10-07T12:23:42.915Z,3.30
2022-10-07T12:26:50.233Z,3.45
2022-10-07T12:29:40.370Z,3.38
2022-10-07T12:32:41.413Z,8.52
2022-10-07T12:35:48.753Z,2.92
2022-10-07T12:38:24.927Z,3.92
2022-10-07T12:41:23.332Z,3.40
2022-10-07T12:43:59.209Z,2.88
2022-10-07T12:46:32.365Z,3.13
2022-10-07T12:49:05.295Z,3.70
2022-10-07T12:51:39.508Z,3.30
2022-10-07T12:54:14.670Z,2.95
2022-10-07T12:56:46.320Z,3.42
2022-10-07T12:59:52.901Z,3.20
2022-10-07T13:03:04.204Z,3.78
2022-10-07T13:06:16.107Z,3.67
2022-10-07T13:09:27.177Z,2.67
2022-10-07T13:12:12.750Z,3.13
2022-10-07T13:14:54.367Z,2.70
2022-10-07T13:17:36.845Z,2.92
2022-10-07T13:20:20.158Z,2.65
2022-10-07T13:22:50.547Z,2.65
2022-10-07T13:25:20.935Z,2.35
2022-10-07T13:27:55.190Z,2.70
2022-10-07T13:30:38.767Z,2.65
2022-10-07T13:33:28.156Z,2.80
2022-10-07T13:36:16.199Z,2.58
2022-10-07T13:38:46.408Z,2.92
2022-10-07T13:41:22.181Z,3.78
2022-10-07T13:43:54.817Z,2.60
2022-10-07T13:46:25.642Z,2.53
2022-10-07T13:48:56.448Z,3.10
2022-10-07T13:51:30.112Z,2.58
2022-10-07T13:54:00.525Z,2.80
2022-10-07T13:56:33.820Z,3.25
2022-10-07T13:59:06.853Z,2.65
2022-10-07T14:01:39.895Z,2.40
2022-10-07T14:04:22.064Z,3.20
2022-10-07T14:07:00.352Z,10.85
2022-10-07T14:09:53.938Z,2.38
2022-10-07T14:12:26.149Z,4.00
2022-10-07T14:15:01.303Z,3.00
2022-10-07T14:17:41.151Z,3.22
2022-10-07T14:20:21.781Z,2.65
2022-10-07T14:22:53.513Z,2.80
2022-10-07T14:25:23.426Z,2.80
2022-10-07T14:28:08.001Z,3.30
2022-10-07T14:30:57.452Z,2.90
2022-10-07T14:33:48.394Z,2.80
2022-10-07T14:36:18.742Z,2.95
2022-10-07T14:38:48.675Z,2.63
2022-10-07T14:41:19.979Z,2.60
2022-10-07T14:43:50.212Z,3.35
2022-10-07T14:46:24.688Z,2.85
2022-10-07T14:48:54.278Z,2.90
2022-10-07T14:51:26.111Z,2.90
2022-10-07T14:54:02.301Z,2.22
2022-10-07T14:56:33.314Z,2.53
2022-10-07T14:59:01.893Z,2.78
2022-10-07T15:01:31.838Z,2.38
2022-10-07T15:04:00.390Z,2.53
2022-10-07T15:06:29.311Z,2.78
2022-10-07T15:08:57.485Z,2.40
2022-10-07T15:11:25.585Z,2.60
2022-10-07T15:13:53.768Z,2.60
2022-10-07T15:16:23.508Z,2.35
2022-10-07T15:18:54.176Z,3.03
2022-10-07T15:21:23.445Z,2.90
2022-10-07T15:23:53.304Z,3.38
2022-10-07T15:26:24.481Z,2.35
2022-10-07T15:28:54.465Z,2.45
2022-10-07T15:31:24.688Z,2.35
2022-10-07T15:33:58.088Z,2.65
2022-10-07T15:36:27.604Z,2.65
2022-10-07T15:38:56.348Z,2.70
2022-10-07T15:41:34.037Z,2.90
2022-10-07T15:44:03.898Z,3.38
2022-10-07T15:46:32.760Z,3.10
2022-10-07T15:49:03.952Z,3.22
2022-10-07T15:51:32.606Z,4.13
2022-10-07T15:54:01.133Z,3.75
2022-10-07T15:56:29.709Z,3.95
2022-10-07T15:58:59.067Z,3.42
2022-10-07T16:01:28.469Z,3.45
2022-10-07T16:03:56.759Z,4.78
2022-10-07T16:06:29.281Z,4.75
2022-10-07T16:09:00.444Z,4.72
2022-10-07T16:11:31.838Z,3.67
2022-10-07T16:14:02.293Z,4.70
2022-10-07T16:16:32.789Z,5.75
2022-10-07T16:19:03.887Z,4.45
2022-10-07T16:21:35.866Z,4.03
2022-10-07T16:24:06.694Z,3.78
2022-10-07T16:26:37.499Z,4.00
2022-10-07T16:29:26.078Z,4.15
2022-10-07T16:31:58.846Z,3.80
2022-10-07T16:34:29.205Z,4.07
2022-10-07T16:36:59.725Z,4.22
2022-10-07T16:39:28.213Z,4.95
2022-10-07T16:41:56.755Z,4.22
2022-10-07T16:44:24.925Z,3.92
2022-10-07T16:46:56.831Z,3.70
2022-10-07T16:49:27.944Z,3.58
2022-10-07T16:51:56.597Z,4.82
2022-10-07T16:54:28.655Z,6.78
2022-10-07T16:56:58.572Z,4.30
2022-10-07T16:59:27.348Z,8.43
2022-10-07T17:02:00.210Z,17.38
2022-10-07T17:04:28.540Z,7.55
2022-10-07T17:06:56.969Z,6.95
2022-10-07T17:09:26.676Z,6.50
2022-10-07T17:11:55.612Z,5.45
2022-10-07T17:14:24.320Z,6.28
2022-10-07T17:16:54.901Z,6.00
2022-10-07T17:19:25.018Z,5.47
2022-10-07T17:21:54.170Z,5.35
2022-10-07T17:24:23.759Z,5.22
2022-10-07T17:26:53.793Z,5.85
2022-10-07T17:29:25.889Z,5.75
2022-10-07T17:31:55.075Z,5.68
2022-10-07T17:34:23.741Z,7.50
2022-10-07T17:36:52.446Z,4.97
2022-10-07T17:39:20.634Z,5.38
2022-10-07T17:41:49.717Z,5.40
2022-10-07T17:44:21.560Z,6.03
2022-10-07T17:46:50.453Z,6.28
2022-10-07T17:49:18.916Z,5.28
2022-10-07T17:51:46.982Z,6.00
2022-10-07T17:54:15.859Z,6.10
2022-10-07T17:56:44.653Z,5.63
2022-10-07T17:59:12.796Z,5.13
2022-10-07T18:01:45.049Z,5.40
2022-10-07T18:04:19.928Z,5.75
2022-10-07T18:06:50.763Z,5.90
2022-10-07T18:09:19.557Z,6.40
2022-10-07T18:12:05.634Z,6.47
2022-10-07T18:14:53.718Z,6.53
2022-10-07T18:17:25.072Z,6.45
2022-10-07T18:19:53.526Z,6.43
2022-10-07T18:22:21.810Z,6.15
2022-10-07T18:24:51.116Z,7.55
2022-10-07T18:27:21.843Z,7.40
2022-10-07T18:29:49.993Z,9.13
2022-10-07T18:32:18.561Z,7.30
2022-10-07T18:34:48.159Z,8.55
2022-10-07T18:37:17.245Z,8.43
2022-10-07T18:39:45.735Z,8.85
2022-10-07T18:42:14.176Z,8.20
2022-10-07T18:44:42.988Z,10.55
2022-10-07T18:47:11.488Z,14.73
2022-10-07T18:49:39.631Z,14.13
2022-10-07T18:52:09.533Z,13.38
2022-10-07T18:54:37.914Z,11.05
2022-10-07T18:57:06.340Z,11.75
2022-10-07T18:59:34.612Z,11.07
2022-10-07T19:02:03.013Z,10.02
2022-10-07T19:04:31.719Z,10.43
2022-10-07T19:07:00.007Z,10.15
2022-10-07T19:09:30.590Z,9.48
2022-10-07T19:11:58.803Z,10.68
2022-10-07T19:14:26.368Z,8.77
2022-10-07T19:16:54.852Z,7.55
2022-10-07T19:19:24.725Z,9.73
2022-10-07T19:21:55.317Z,11.77
2022-10-07T19:24:44.833Z,14.70
2022-10-07T19:27:14.771Z,12.88
2022-10-07T19:29:43.021Z,14.20
2022-10-07T19:32:11.548Z,13.10
2022-10-07T19:34:39.865Z,21.67
2022-10-07T19:37:08.708Z,26.83
2022-10-07T19:39:37.293Z,13.35
2022-10-07T19:42:05.885Z,20.15
2022-10-07T19:44:38.500Z,14.35
2022-10-07T19:47:06.974Z,17.73
2022-10-07T19:49:35.145Z,14.85
2022-10-07T19:52:03.423Z,18.67
2022-10-07T19:54:36.062Z,13.40
2022-10-07T19:57:04.333Z,22.23
2022-10-07T19:59:32.661Z,16.02
2022-10-07T20:02:02.397Z,40.65
2022-10-07T20:04:31.091Z,23.25
2022-10-07T20:07:00.167Z,19.27
2022-10-07T20:09:28.671Z,18.00
2022-10-07T20:11:57.130Z,46.97
2022-10-07T20:14:25.830Z,65.05
2022-10-07T20:16:56.519Z,49.17
2022-10-07T20:19:26.652Z,54.55
2022-10-07T20:21:54.928Z,94.53
2022-10-07T20:24:23.135Z,69.47
2022-10-07T20:26:51.869Z,52.10
2022-10-07T20:29:25.156Z,37.55
2022-10-07T20:31:54.482Z,36.47
2022-10-07T20:34:26.957Z,50.90
2022-10-07T20:36:57.667Z,110.53
2022-10-07T20:39:43.624Z,135.85
2022-10-07T20:42:25.962Z,73.05
2022-10-07T20:44:55.070Z,132.27
2022-10-07T20:47:26.385Z,162.77
2022-10-07T20:49:57.247Z,112.22
2022-10-07T20:52:29.410Z,57.45
2022-10-07T20:54:58.082Z,187.77
2022-10-07T20:57:29.030Z,72.72
2022-10-07T20:59:57.517Z,75.32
2022-10-07T21:02:29.377Z,86.88
2022-10-07T21:04:59.406Z,81.15
2022-10-07T21:07:29.417Z,100.13
2022-10-07T21:09:58.294Z,99.13
2022-10-07T21:12:26.798Z,82.50
2022-10-07T21:14:56.701Z,63.17
2022-10-07T21:17:25.218Z,40.38
2022-10-07T21:19:53.586Z,43.25
2022-10-07T21:22:21.843Z,30.40
2022-10-07T21:24:51.972Z,25.67
2022-10-07T21:27:20.696Z,23.08
2022-10-07T21:29:49.191Z,31.25
2022-10-07T21:32:18.571Z,45.38
2022-10-07T21:34:47.075Z,53.78
2022-10-07T21:37:15.415Z,61.80
2022-10-07T21:39:43.737Z,98.38
2022-10-07T21:42:13.875Z,111.35
2022-10-07T21:44:44.489Z,137.13
2022-10-07T21:47:13.048Z,64.25
2022-10-07T21:49:41.381Z,63.58
2022-10-07T21:52:09.819Z,65.07
2022-10-07T21:54:38.543Z,57.05
2022-10-07T21:57:06.949Z,55.75
2022-10-07T21:59:37.031Z,93.10
2022-10-07T22:02:06.227Z,59.60
2022-10-07T22:04:34.704Z,67.00
2022-10-07T22:07:20.420Z,55.75
2022-10-07T22:09:48.679Z,53.85
2022-10-07T22:12:18.631Z,85.30
2022-10-07T22:14:48.504Z,86.38
2022-10-07T22:17:17.016Z,75.25
2022-10-07T22:19:45.376Z,79.63
2022-10-07T22:22:14.206Z,97.68
2022-10-07T22:24:42.587Z,105.07
2022-10-07T22:27:11.029Z,66.70
2022-10-07T22:29:40.063Z,42.47
2022-10-07T22:32:09.846Z,52.47
2022-10-07T22:34:55.524Z,44.13
2022-10-07T22:37:23.901Z,42.33
2022-10-07T22:39:52.300Z,48.10
2022-10-07T22:42:20.677Z,65.53
2022-10-07T22:44:49.090Z,48.28
2022-10-07T22:47:19.815Z,78.22
2022-10-07T22:49:48.689Z,76.40
2022-10-07T22:52:17.012Z,69.25
2022-10-07T22:54:45.590Z,169.98
2022-10-07T22:57:13.872Z,205.10
2022-10-07T22:59:42.276Z,234.52
2022-10-07T23:02:10.794Z,39.50
2022-10-07T23:04:40.862Z,53.25
2022-10-07T23:07:11.071Z,57.15
2022-10-07T23:09:39.364Z,61.92
2022-10-07T23:12:07.750Z,60.10
2022-10-07T23:14:36.105Z,45.70
2022-10-07T23:17:04.905Z,43.13
2022-10-07T23:19:33.214Z,124.18
2022-10-07T23:22:03.229Z,44.33
2022-10-07T23:24:31.613Z,54.65
2022-10-07T23:26:59.953Z,94.05
2022-10-07T23:29:28.617Z,40.70
2022-10-07T23:31:56.961Z,54.47
2022-10-07T23:34:25.477Z,46.65
2022-10-07T23:36:55.442Z,37.80
2022-10-07T23:39:25.886Z,46.58
2022-10-07T23:41:54.182Z,53.83
2022-10-07T23:44:24.113Z,56.55
2022-10-07T23:46:52.908Z,75.15
2022-10-07T23:49:21.443Z,87.13
2022-10-07T23:51:51.410Z,67.93
2022-10-07T23:54:20.481Z,66.28
2022-10-07T23:56:50.587Z,68.60
2022-10-07T23:59:19.622Z,106.22
